Odonnell Spur, Wyoming
Current Conditions -  °F | °C
As of 1:15 PM on Sunday 21 Dec 2014 (Local Time) from KPOY Reporting Station
Light Snow Light Snow  
Wind Chill: 27°   Ceiling: 4800
Heat Index: 34°   Visibility: 10mi
Dew Point: 28°   Wind: 8mph
Humidity: 81%   Direction: 60°ENE
Pressure: 29.48"   Gusts: NA
Location:  44.8625°N, 108.965°W
Report Text: KPOY 212015Z AUTO 06007KT 10SM -SN SCT025 BKN048 OVC055 01/M02 A2948 RMK AO2
Loading
Personal Weather Stations






























Interactive Weather Map New forecast layout! Learn more

10-Day Weather Forecast

Advertisements
Track Severe Weather on mobile